Guymon Municipal Airport
KGUY : now visible

Airfield :











YOU CAN JOIN US ON...

 
LOGIN :

Register | Disclaimer

   EN    FR    IT 

 









Legend :    VFR   Marginal VFR   IFR   Intensive IFR   Very Intensive IFR
Visi :
Ceiling :
>= 8 km
>= 3000ft
5 to 8 km
1000 to 3000 ft
1500m to 5 km
500 to 1000 ft
800 to 1500m
200 to 500 ft
< 800m
< 200 ft
Symbols :   Thunderstorms  Fog  Heavy snow  Heavy precipitations  Wind > 20 kt






- Airport Elevation : 3123 ft


KGUY - Guymon Municipal

CURRENT METAR :
  • 171153Z AUTO 00000KT 10SM CLR 06/04 A2993 RMK AO2 SLP108 T00560039 10133 20056 51009

EXPIRED METARs :
  • 171053Z AUTO 29003KT 10SM CLR 07/04 A2992 RMK AO2 SLP104 T00670044
  • 170953Z AUTO 31006KT 10SM CLR 08/05 A2992 RMK AO2 SLP103 T00780050
  • 170853Z AUTO 21004KT 10SM CLR 09/05 A2990 RMK AO2 SLP094 T00940050 58001
  • 170753Z AUTO 15003KT 10SM CLR 12/06 A2991 RMK AO2 SLP095 T01170056

TAF KGUY
Valid from the 17 at 12:00 until the 18 at 12:00 UTC


171140Z 1712/1812 VRB06KT P6SM SKC
FM171600 16009KT P6SM SKC
FM171900 20011KT P6SM SKC
FM180500 23014KT P6SM SKC
FM180800 34023G33KT P6SM SCT015
KZKC FIR / North America



MET'MAP, your aeronautical weather chart ! - Copyright ORBIFLY December 2007 - Disclaimer

ORBIFLY MET'MAP TEAM :

Programming & Development : Alexandra Zaïnal
Original concept : Baudouin d'Aumeries
Technical & hardware support : Manuel Goepfert
Assistance : Marc-Olivier Méhu




SOURCES & CREDITS :

   NOAA       Earth
Advisory